Time;durP1;ratioP1;P1;durP2;ratioP2;P2;SDS_P1;SDS_P2;PMS_P1;PMS_P2;Temp;Humidity;BMP_temperature;BMP_pressure;BME280_temperature;BME280_humidity;BME280_pressure;Samples;Min_cycle;Max_cycle;Signal;HPM_P1;HPM_P2
2021/01/28 00:00:34;;;;;;;11.30;5.80;;;;;;;-1.13;67.08;99982.00;5052146;28;20029;-70
2021/01/28 00:03:01;;;;;;;13.60;6.20;;;;;;;-1.28;67.29;99976.13;5034561;28;20163;-71
2021/01/28 00:05:30;;;;;;;11.68;6.70;;;;;;;-1.40;68.07;99978.94;5052144;28;20029;-73
2021/01/28 00:07:57;;;;;;;11.45;6.57;;;;;;;-1.44;68.28;99987.72;5034606;28;20115;-72
2021/01/28 00:10:22;;;;;;;13.13;6.40;;;;;;;-1.62;68.65;99967.09;5034166;28;20084;-72
2021/01/28 00:12:48;;;;;;;12.10;6.00;;;;;;;-1.42;68.68;99972.88;5052392;28;20069;-71
2021/01/28 00:15:17;;;;;;;13.05;6.75;;;;;;;-1.44;68.70;99987.72;5034522;28;20033;-73
2021/01/28 00:17:43;;;;;;;11.18;6.70;;;;;;;-1.71;69.35;99965.47;5018272;28;20036;-73
2021/01/28 00:20:21;;;;;;;13.13;6.57;;;;;;;-1.83;70.98;99978.72;5034870;28;20406;-73
2021/01/28 00:22:46;;;;;;;14.40;7.03;;;;;;;-1.92;71.72;99977.09;5052478;28;20025;-73
2021/01/28 00:25:16;;;;;;;14.68;6.90;;;;;;;-2.06;71.72;99968.56;5052146;28;20151;-74
2021/01/28 00:27:42;;;;;;;13.85;6.88;;;;;;;-2.20;72.55;99976.59;5055115;28;20068;-75
2021/01/28 00:30:11;;;;;;;13.65;7.20;;;;;;;-2.11;72.07;99980.84;5055804;28;20044;-73
2021/01/28 00:32:37;;;;;;;17.33;7.10;;;;;;;-2.16;72.30;99972.19;5055344;28;20036;-74
2021/01/28 00:35:03;;;;;;;13.52;6.68;;;;;;;-2.24;72.78;99972.28;5005387;28;20112;-76
2021/01/28 00:37:28;;;;;;;14.93;7.13;;;;;;;-2.44;72.52;99928.13;5037721;28;20037;-77
2021/01/28 00:39:54;;;;;;;13.55;7.45;;;;;;;-2.20;72.71;99973.13;5055755;28;20394;-76
2021/01/28 00:42:20;;;;;;;15.57;7.20;;;;;;;-2.43;72.75;99931.59;5059749;28;20064;-79
2021/01/28 00:44:46;;;;;;;13.48;7.35;;;;;;;-1.93;71.41;99970.16;5075699;28;20028;-71
2021/01/28 00:47:12;;;;;;;14.50;6.97;;;;;;;-1.77;70.79;99969.03;5075878;28;20077;-71
2021/01/28 00:49:37;;;;;;;14.05;6.68;;;;;;;-1.74;70.05;99963.78;5074177;28;20029;-72
2021/01/28 00:52:03;;;;;;;15.35;7.18;;;;;;;-1.93;70.20;99951.84;5074314;28;20060;-71
2021/01/28 00:54:28;;;;;;;15.27;7.00;;;;;;;-1.92;71.60;99963.19;5075430;28;20040;-73
2021/01/28 00:56:53;;;;;;;13.30;6.93;;;;;;;-1.93;72.14;99956.19;5074207;28;20181;-73
2021/01/28 00:59:19;;;;;;;13.23;7.43;;;;;;;-2.06;72.32;99952.88;5074035;28;20123;-73
2021/01/28 01:01:44;;;;;;;12.15;6.68;;;;;;;-2.17;73.08;99952.19;5074947;28;20029;-73
2021/01/28 01:04:10;;;;;;;13.80;6.82;;;;;;;-2.55;73.34;99900.44;5075269;28;20388;-73
2021/01/28 01:06:36;;;;;;;17.17;7.15;;;;;;;-2.52;73.54;99910.81;5073865;28;20463;-72
2021/01/28 01:09:01;;;;;;;14.85;7.20;;;;;;;-2.70;73.95;99888.41;5075225;28;20032;-73
2021/01/28 01:11:27;;;;;;;13.70;7.20;;;;;;;-2.29;73.74;99939.28;5075208;28;20064;-72
2021/01/28 01:13:52;;;;;;;11.90;6.65;;;;;;;-2.20;73.18;99942.63;5073813;28;20394;-75
2021/01/28 01:16:19;;;;;;;15.32;7.32;;;;;;;-2.04;71.95;99940.66;5057524;28;20036;-75
2021/01/28 01:18:45;;;;;;;13.50;7.07;;;;;;;-2.12;72.12;99904.22;5074858;28;20032;-76
2021/01/28 01:21:10;;;;;;;17.13;6.95;;;;;;;-2.25;72.07;99891.31;5074082;28;20520;-76
2021/01/28 01:23:36;;;;;;;14.32;7.38;;;;;;;-2.25;72.09;99901.75;5073941;28;20458;-73
2021/01/28 01:26:02;;;;;;;14.48;6.95;;;;;;;-2.01;72.10;99948.47;5074741;28;20086;-72
2021/01/28 01:28:28;;;;;;;12.35;6.65;;;;;;;-2.09;72.84;99945.09;5074409;28;20032;-77
2021/01/28 01:30:54;;;;;;;13.10;7.00;;;;;;;-2.23;72.86;99942.66;5075025;28;20063;-72
2021/01/28 01:33:21;;;;;;;17.92;7.43;;;;;;;-2.33;73.27;99928.84;5073815;28;20523;-73
2021/01/28 01:35:46;;;;;;;14.75;7.30;;;;;;;-2.52;73.52;99909.06;5073226;28;20036;-74
2021/01/28 01:38:12;;;;;;;18.08;7.68;;;;;;;-2.52;73.37;99908.22;5073677;28;20431;-73
2021/01/28 01:40:41;;;;;;;13.57;7.25;;;;;;;-2.32;73.29;99951.50;5072897;28;20040;-75
2021/01/28 01:43:09;;;;;;;13.73;7.10;;;;;;;-2.36;74.12;99947.19;5055592;28;20556;-74
2021/01/28 01:45:58;;;;;;;16.58;7.55;;;;;;;-2.67;74.16;99920.59;5054024;28;20029;-72
2021/01/28 01:48:28;;;;;;;16.08;7.00;;;;;;;-2.53;73.76;99922.16;5036596;28;20069;-79
2021/01/28 01:50:54;;;;;;;14.90;6.90;;;;;;;-2.41;73.97;99946.41;5054398;28;20025;-71
2021/01/28 01:53:27;;;;;;;16.10;7.20;;;;;;;-2.53;74.16;99928.25;5054517;28;20097;-71
2021/01/28 01:56:04;;;;;;;11.75;6.70;;;;;;;-2.55;74.45;99924.78;5054244;28;20040;-72
2021/01/28 01:58:48;;;;;;;15.00;7.63;;;;;;;-2.78;74.19;99890.28;5054203;28;20025;-71
2021/01/28 02:01:15;;;;;;;13.77;6.82;;;;;;;-2.49;74.13;99945.63;5054308;28;20036;-70
2021/01/28 02:03:43;;;;;;;12.45;6.30;;;;;;;-2.35;73.17;99942.81;5053983;28;20033;-73
2021/01/28 02:06:17;;;;;;;12.57;6.65;;;;;;;-2.51;73.92;99947.41;5036306;28;20120;-71
2021/01/28 02:08:48;;;;;;;13.63;6.97;;;;;;;-2.58;73.84;99931.81;5053747;28;20108;-71
2021/01/28 02:11:14;;;;;;;13.48;7.15;;;;;;;-2.42;73.69;99946.38;5036274;28;20098;-72
2021/01/28 02:13:40;;;;;;;15.13;7.07;;;;;;;-2.51;74.07;99942.16;5035801;28;20020;-72
2021/01/28 02:16:07;;;;;;;14.68;6.93;;;;;;;-2.29;73.14;99947.13;5053811;28;20036;-71
2021/01/28 02:18:33;;;;;;;15.20;6.97;;;;;;;-2.45;73.30;99942.06;5054022;28;20038;-72
2021/01/28 02:21:18;;;;;;;13.27;7.32;;;;;;;-2.48;73.79;99952.56;5036198;28;20051;-71
2021/01/28 02:24:14;;;;;;;14.15;7.15;;;;;;;-2.56;74.09;99954.41;5035747;28;20413;-71
2021/01/28 02:26:48;;;;;;;13.95;7.13;;;;;;;-2.31;72.63;99955.84;5035659;28;20115;-72
2021/01/28 02:29:14;;;;;;;12.93;7.47;;;;;;;-2.27;72.39;99955.78;5053830;28;20039;-71
2021/01/28 02:31:45;;;;;;;13.15;6.75;;;;;;;-2.36;72.50;99952.41;5035741;28;20040;-72
2021/01/28 02:34:11;;;;;;;14.00;6.93;;;;;;;-2.41;72.52;99945.53;5036247;28;20119;-73
2021/01/28 02:36:44;;;;;;;11.63;6.20;;;;;;;-2.37;72.72;99945.47;5053503;28;20104;-71
2021/01/28 02:39:12;;;;;;;11.13;6.25;;;;;;;-2.39;72.71;99947.25;5053570;28;20036;-71
2021/01/28 02:41:38;;;;;;;12.32;6.28;;;;;;;-2.63;72.75;99910.97;5053271;28;20055;-72
2021/01/28 02:44:04;;;;;;;12.40;6.57;;;;;;;-2.36;72.77;99951.56;5053391;28;20040;-70
2021/01/28 02:46:30;;;;;;;10.02;6.32;;;;;;;-2.41;73.20;99946.41;5053062;28;20029;-70
2021/01/28 02:48:56;;;;;;;11.57;6.40;;;;;;;-2.51;73.68;99930.84;5019079;28;20119;-70
2021/01/28 02:51:22;;;;;;;13.52;7.18;;;;;;;-2.91;74.33;99869.50;5018871;28;20036;-71
2021/01/28 02:53:52;;;;;;;13.07;6.50;;;;;;;-2.56;74.09;99938.72;5034891;28;20868;-70
2021/01/28 02:56:19;;;;;;;13.00;6.55;;;;;;;-2.59;74.29;99928.34;5053326;28;20025;-71
2021/01/28 02:58:44;;;;;;;12.73;6.75;;;;;;;-2.72;74.31;99916.28;5035170;28;20033;-71
2021/01/28 03:01:11;;;;;;;13.13;6.38;;;;;;;-2.59;74.39;99930.94;5053275;28;20028;-72
2021/01/28 03:03:36;;;;;;;54.58;18.83;;;;;;;-2.59;73.90;99933.56;5052730;28;20037;-67
2021/01/28 03:06:04;;;;;;;21.20;8.88;;;;;;;-2.89;74.21;99925.19;5035373;28;20033;-69
2021/01/28 03:08:30;;;;;;;14.70;7.40;;;;;;;-2.84;74.49;99947.75;5035148;28;20616;-68
2021/01/28 03:10:55;;;;;;;14.05;6.90;;;;;;;-3.01;74.95;99942.72;5034992;28;20139;-68
2021/01/28 03:13:23;;;;;;;15.73;7.43;;;;;;;-3.14;75.65;99934.16;5052822;28;20029;-68
2021/01/28 03:15:49;;;;;;;19.00;7.80;;;;;;;-3.10;75.76;99950.63;5052652;28;20025;-69
2021/01/28 03:18:15;;;;;;;13.40;6.72;;;;;;;-3.07;75.67;99950.63;5052950;28;20041;-68
2021/01/28 03:20:41;;;;;;;13.43;6.80;;;;;;;-3.02;75.72;99965.34;5052600;28;20505;-69
2021/01/28 03:23:08;;;;;;;13.48;7.15;;;;;;;-3.37;76.29;99892.66;5053075;28;20126;-69
2021/01/28 03:25:33;;;;;;;12.10;6.50;;;;;;;-3.04;76.36;99955.78;5034496;28;20175;-69
2021/01/28 03:27:59;;;;;;;13.32;6.72;;;;;;;-3.26;75.59;99893.41;5052809;28;20116;-69
2021/01/28 03:30:28;;;;;;;14.05;6.53;;;;;;;-2.98;75.37;99935.72;5052725;28;20035;-69
2021/01/28 03:32:54;;;;;;;12.60;7.10;;;;;;;-2.91;75.41;99945.19;5052371;28;20110;-69
2021/01/28 03:35:21;;;;;;;13.27;7.22;;;;;;;-3.01;75.18;99920.09;5035036;28;20044;-71
2021/01/28 03:37:46;;;;;;;14.07;6.90;;;;;;;-2.78;75.29;99945.09;5052306;28;20516;-72
2021/01/28 03:40:13;;;;;;;13.65;6.63;;;;;;;-2.86;75.65;99931.25;5052898;28;20041;-72
2021/01/28 03:42:39;;;;;;;13.98;7.10;;;;;;;-2.75;76.04;99945.06;5052271;28;20102;-72
2021/01/28 03:45:06;;;;;;;12.25;6.63;;;;;;;-2.94;75.76;99906.09;5052449;28;20033;-72
2021/01/28 03:47:32;;;;;;;11.80;6.57;;;;;;;-2.76;75.63;99943.31;5052261;28;20030;-76
2021/01/28 03:49:58;;;;;;;15.02;6.50;;;;;;;-2.73;75.50;99941.53;5052692;28;20066;-71
2021/01/28 03:52:24;;;;;;;13.48;6.70;;;;;;;-2.70;75.34;99938.91;5034980;28;20458;-72
2021/01/28 03:54:49;;;;;;;13.15;6.43;;;;;;;-2.82;75.35;99927.72;5018294;28;20033;-71
2021/01/28 03:57:15;;;;;;;12.63;6.80;;;;;;;-2.75;75.52;99926.78;5034351;28;20048;-72
2021/01/28 03:59:40;;;;;;;15.65;7.30;;;;;;;-3.01;75.29;99893.13;5052393;28;20044;-73
2021/01/28 04:02:06;;;;;;;16.10;7.88;;;;;;;-2.76;75.67;99930.28;5054965;28;20025;-73
2021/01/28 04:04:32;;;;;;;19.20;7.68;;;;;;;-3.17;75.67;99867.22;5038258;28;20057;-74
2021/01/28 04:06:57;;;;;;;18.70;8.63;;;;;;;-2.99;75.88;99918.34;5056130;28;20458;-73
2021/01/28 04:09:23;;;;;;;18.92;9.93;;;;;;;-3.07;75.27;99908.88;5038490;28;20046;-71
2021/01/28 04:11:49;;;;;;;22.60;9.68;;;;;;;-3.01;75.54;99917.47;5037918;28;20048;-71
2021/01/28 04:14:15;;;;;;;18.13;9.43;;;;;;;-3.08;75.81;99915.84;5038413;28;20029;-72
2021/01/28 04:16:40;;;;;;;23.02;11.35;;;;;;;-3.15;75.42;99906.34;5055807;28;20048;-71
2021/01/28 04:19:06;;;;;;;26.38;11.55;;;;;;;-3.37;76.19;99884.81;5038323;28;20037;-73
2021/01/28 04:21:31;;;;;;;22.08;10.32;;;;;;;-3.69;76.41;99840.78;5056024;28;20033;-73
2021/01/28 04:23:57;;;;;;;30.00;10.85;;;;;;;-3.60;76.78;99861.53;5021449;28;20090;-73
2021/01/28 04:26:24;;;;;;;22.95;10.18;;;;;;;-3.55;77.02;99880.63;5055986;28;20458;-73
2021/01/28 04:28:50;;;;;;;26.70;10.80;;;;;;;-3.50;77.52;99884.06;5055553;28;20029;-73
2021/01/28 04:31:15;;;;;;;24.45;12.13;;;;;;;-3.49;76.96;99891.00;5055951;28;20031;-74
2021/01/28 04:33:41;;;;;;;28.70;11.90;;;;;;;-3.25;76.59;99883.84;5021075;28;20127;-75
2021/01/28 04:36:06;;;;;;;26.42;10.82;;;;;;;-3.10;75.71;99896.69;5038264;28;20039;-73
2021/01/28 04:38:33;;;;;;;26.58;12.32;;;;;;;-3.14;75.11;99897.63;5055732;28;20067;-73
2021/01/28 04:41:17;;;;;;;31.33;13.05;;;;;;;-3.02;74.64;99897.47;5055140;28;20109;-72
2021/01/28 04:43:42;;;;;;;28.33;12.60;;;;;;;-3.04;74.15;99886.19;5055522;28;20025;-73
2021/01/28 04:46:14;;;;;;;29.27;13.43;;;;;;;-3.23;74.71;99890.75;5055400;28;20494;-72
2021/01/28 04:48:40;;;;;;;28.83;13.15;;;;;;;-3.70;75.93;99841.66;5055424;28;20033;-72
2021/01/28 04:51:06;;;;;;;31.05;13.73;;;;;;;-3.50;75.91;99862.31;5055512;28;20074;-71
2021/01/28 04:53:48;;;;;;;32.22;14.27;;;;;;;-3.52;76.56;99875.38;5055453;28;20488;-70
2021/01/28 04:56:17;;;;;;;28.25;13.57;;;;;;;-3.84;76.75;99840.94;5055422;28;20021;-71
2021/01/28 04:58:43;;;;;;;31.17;13.82;;;;;;;-3.60;76.35;99881.53;5055322;28;20106;-71
2021/01/28 05:01:08;;;;;;;29.80;14.27;;;;;;;-3.53;76.38;99881.47;5055242;28;20481;-71
2021/01/28 05:03:42;;;;;;;28.27;13.63;;;;;;;-3.43;76.27;99884.88;5055461;28;20094;-71
2021/01/28 05:06:08;;;;;;;25.73;12.65;;;;;;;-3.48;76.05;99890.09;5055182;28;20490;-71
2021/01/28 05:08:34;;;;;;;26.63;13.18;;;;;;;-3.56;76.36;99884.13;5037437;28;20037;-70
2021/01/28 05:11:00;;;;;;;26.92;13.60;;;;;;;-3.95;76.62;99819.31;5055442;28;20033;-69
2021/01/28 05:13:30;;;;;;;28.70;13.85;;;;;;;-3.66;77.01;99887.69;5037098;28;20037;-69
2021/01/28 05:15:59;;;;;;;28.98;13.25;;;;;;;-3.42;76.09;99878.78;5054954;28;20029;-70
2021/01/28 05:18:36;;;;;;;29.10;12.77;;;;;;;-3.31;75.64;99876.06;5055050;28;20083;-70
2021/01/28 05:21:05;;;;;;;23.83;12.57;;;;;;;-3.62;75.83;99837.25;5054598;28;20370;-70
2021/01/28 05:23:35;;;;;;;31.38;14.10;;;;;;;-3.49;76.41;99885.78;5054936;28;20037;-72
2021/01/28 05:26:01;;;;;;;32.55;13.75;;;;;;;-3.78;76.99;99844.31;5054447;28;20025;-70
2021/01/28 05:28:36;;;;;;;28.38;13.45;;;;;;;-3.76;77.69;99849.56;5054576;28;20492;-70
2021/01/28 05:31:01;;;;;;;33.17;14.20;;;;;;;-3.84;77.62;99851.34;5054400;28;20029;-71
2021/01/28 05:33:31;;;;;;;27.73;13.98;;;;;;;-3.66;77.95;99898.13;5036823;28;20036;-71
2021/01/28 05:36:18;;;;;;;28.23;14.95;;;;;;;-3.71;78.25;99909.44;5054466;28;20036;-71
2021/01/28 05:38:54;;;;;;;28.00;14.32;;;;;;;-3.67;78.60;99911.13;5036547;28;20033;-71
2021/01/28 05:41:25;;;;;;;28.48;13.48;;;;;;;-3.72;79.09;99908.59;5054452;28;20470;-70
2021/01/28 05:43:51;;;;;;;30.85;14.73;;;;;;;-3.65;78.48;99879.00;5054071;28;20029;-67
2021/01/28 05:46:25;;;;;;;30.02;15.00;;;;;;;-3.61;78.98;99891.09;5054412;28;20033;-68
2021/01/28 05:49:07;;;;;;;33.92;15.90;;;;;;;-3.60;79.02;99887.63;5035986;28;20055;-70
2021/01/28 05:51:41;;;;;;;36.50;15.75;;;;;;;-3.60;79.29;99881.53;5054686;28;20027;-72
2021/01/28 05:54:15;;;;;;;30.13;14.85;;;;;;;-3.54;79.36;99887.56;5054562;28;20139;-72
2021/01/28 05:57:06;;;;;;;31.80;14.88;;;;;;;-3.51;79.52;99890.16;5054016;28;20087;-78
2021/01/28 05:59:42;;;;;;;30.65;15.15;;;;;;;-3.65;79.71;99863.34;5054091;28;20021;-70
2021/01/28 06:02:37;;;;;;;30.63;15.18;;;;;;;-3.44;79.68;99888.34;5054450;28;20110;-71
2021/01/28 06:05:17;;;;;;;28.75;14.63;;;;;;;-3.40;79.64;99890.03;5053973;28;20037;-69
2021/01/28 06:08:13;;;;;;;33.38;15.93;;;;;;;-3.36;79.21;99885.69;5053830;28;20040;-74
2021/01/28 06:11:03;;;;;;;43.50;19.10;;;;;;;-3.46;78.74;99890.13;5054020;28;20040;-72
2021/01/28 06:13:32;;;;;;;49.40;22.50;;;;;;;-3.61;78.61;99890.25;5035871;28;20068;-70
2021/01/28 06:16:16;;;;;;;58.08;24.92;;;;;;;-3.65;78.48;99871.16;5035632;28;20470;-70
2021/01/28 06:19:07;;;;;;;63.65;27.58;;;;;;;-3.54;77.75;99881.50;5053846;28;20029;-79
2021/01/28 06:21:51;;;;;;;66.53;29.08;;;;;;;-3.63;78.29;99895.47;5053820;28;20444;-67
2021/01/28 06:24:39;;;;;;;60.10;26.50;;;;;;;-3.75;78.67;99892.97;5053030;28;20094;-67
2021/01/28 06:27:16;;;;;;;62.75;25.63;;;;;;;-3.91;79.08;99870.50;5053377;28;20029;-67
2021/01/28 06:29:41;;;;;;;53.05;25.80;;;;;;;-3.74;78.79;99894.72;5053584;28;20021;-67
2021/01/28 06:32:24;;;;;;;55.88;23.33;;;;;;;-3.72;78.70;99895.56;5053317;28;20048;-67
2021/01/28 06:34:55;;;;;;;44.72;21.38;;;;;;;-3.38;77.91;99883.06;5035560;28;20029;-67
2021/01/28 06:37:42;;;;;;;43.78;19.45;;;;;;;-3.18;76.94;99880.28;5053586;28;20116;-67
2021/01/28 06:40:17;;;;;;;34.85;16.88;;;;;;;-2.92;75.38;99883.44;5053139;28;20063;-66
2021/01/28 06:42:53;;;;;;;39.75;17.48;;;;;;;-2.86;75.25;99889.50;5053655;28;20048;-76
2021/01/28 06:45:23;;;;;;;37.95;17.63;;;;;;;-3.07;75.87;99886.25;5053518;28;20032;-68
2021/01/28 06:48:19;;;;;;;40.33;18.38;;;;;;;-3.24;75.55;99831.63;5053390;28;20029;-67
2021/01/28 06:51:03;;;;;;;40.38;18.83;;;;;;;-2.76;74.98;99873.69;5052512;28;20037;-69
2021/01/28 06:53:46;;;;;;;40.53;19.27;;;;;;;-2.96;76.20;99886.13;5053284;28;20064;-67
2021/01/28 06:56:34;;;;;;;40.35;19.08;;;;;;;-3.00;76.84;99874.84;5053407;28;20036;-66
2021/01/28 06:59:03;;;;;;;46.40;19.77;;;;;;;-2.91;76.72;99872.13;5052971;28;20481;-67
2021/01/28 07:01:31;;;;;;;46.22;19.88;;;;;;;-2.85;76.53;99881.66;5053164;28;20033;-69
2021/01/28 07:04:02;;;;;;;42.47;19.73;;;;;;;-2.93;76.56;99878.25;5052753;28;20029;-71
2021/01/28 07:06:47;;;;;;;40.63;19.65;;;;;;;-2.81;75.87;99843.31;5053154;28;20033;-69
2021/01/28 07:09:36;;;;;;;46.08;21.63;;;;;;;-2.64;75.81;99877.91;5053204;28;20029;-73
2021/01/28 07:12:05;;;;;;;52.05;22.23;;;;;;;-2.67;75.81;99880.56;5052817;28;20029;-72
2021/01/28 07:14:32;;;;;;;49.70;22.08;;;;;;;-2.79;76.55;99878.97;5052920;28;20454;-71
2021/01/28 07:17:04;;;;;;;51.38;23.00;;;;;;;-2.81;76.96;99872.03;5052966;28;20083;-72
2021/01/28 07:19:37;;;;;;;51.47;21.67;;;;;;;-2.81;77.07;99861.56;5052837;28;20044;-72
2021/01/28 07:22:36;;;;;;;49.20;21.73;;;;;;;-2.68;77.07;99881.44;5052757;28;20060;-72
2021/01/28 07:25:20;;;;;;;44.00;19.98;;;;;;;-2.58;76.79;99883.06;5033927;28;20037;-72
2021/01/28 07:28:03;;;;;;;;;;;;;;;-2.17;75.35;99879.00;5053270;28;20029;-71
2021/01/28 07:30:40;;;;;;;50.28;20.38;;;;;;;-2.08;75.33;99881.50;5052777;28;19909;-70
2021/01/28 07:33:26;;;;;;;51.90;21.33;;;;;;;-2.00;75.14;99874.41;5052758;28;20107;-70
2021/01/28 07:36:17;;;;;;;46.70;21.08;;;;;;;-1.85;75.43;99870.66;5035157;28;20040;-71
2021/01/28 07:38:52;;;;;;;39.03;18.00;;;;;;;-1.62;74.79;99862.47;5056970;28;20115;-71
2021/01/28 07:41:27;;;;;;;39.58;17.75;;;;;;;-1.54;74.75;99837.06;5056758;28;20497;-71
2021/01/28 07:44:14;;;;;;;35.40;16.60;;;;;;;-1.42;74.26;99826.34;5056615;28;20504;-70
2021/01/28 07:46:41;;;;;;;36.67;17.50;;;;;;;-1.03;73.91;99871.84;5056717;28;20031;-70
2021/01/28 07:49:23;;;;;;;47.83;19.13;;;;;;;-0.84;73.65;99864.50;5056514;28;20051;-71
2021/01/28 07:52:12;;;;;;;44.03;17.73;;;;;;;-0.75;73.01;99851.22;5038692;28;20041;-77
2021/01/28 07:54:48;;;;;;;37.78;16.13;;;;;;;-0.62;72.90;99855.31;5056429;28;20056;-72
2021/01/28 07:57:42;;;;;;;39.65;15.93;;;;;;;-0.51;72.69;99851.59;5057057;28;20505;-72
2021/01/28 08:00:13;;;;;;;43.03;16.35;;;;;;;-0.48;72.52;99848.91;5034200;28;20048;-71
2021/01/28 08:02:39;;;;;;;41.70;18.75;;;;;;;-0.62;72.90;99810.78;5056511;28;20040;-70
2021/01/28 08:05:04;;;;;;;45.15;21.30;;;;;;;-0.23;71.11;99846.59;5056171;28;20032;-70
2021/01/28 08:07:34;;;;;;;45.22;21.63;;;;;;;-0.32;71.19;99838.06;5056463;28;20035;-70
2021/01/28 08:10:03;;;;;;;50.00;22.88;;;;;;;-0.39;71.32;99825.13;5056043;28;20041;-72
2021/01/28 08:12:44;;;;;;;46.65;22.92;;;;;;;-0.31;71.50;99838.91;5056201;28;20033;-70
2021/01/28 08:15:17;;;;;;;53.13;23.42;;;;;;;-0.14;70.55;99821.03;5055986;28;20025;-70
2021/01/28 08:17:42;;;;;;;53.58;21.88;;;;;;;-0.04;70.94;99829.56;5056498;28;20032;-71
2021/01/28 08:20:26;;;;;;;49.67;22.65;;;;;;;-0.10;70.48;99822.69;5038174;28;20037;-71
2021/01/28 08:22:57;;;;;;;48.38;20.83;;;;;;;0.23;70.31;99825.41;5055937;28;20025;-73
2021/01/28 08:25:24;;;;;;;46.72;22.92;;;;;;;0.18;70.21;99829.88;5038443;28;20075;-71
2021/01/28 08:27:51;;;;;;;52.63;22.83;;;;;;;0.11;70.24;99820.47;5056247;28;20039;-71
2021/01/28 08:30:23;;;;;;;45.25;21.85;;;;;;;0.23;70.37;99814.91;5038172;28;20044;-71
2021/01/28 08:32:55;;;;;;;49.33;21.65;;;;;;;-0.01;70.02;99796.25;5056275;28;20067;-71
2021/01/28 08:35:28;;;;;;;50.20;22.25;;;;;;;0.15;70.42;99822.09;5055697;28;20083;-70
2021/01/28 08:38:33;;;;;;;48.78;21.15;;;;;;;0.12;71.26;99833.53;5037688;28;20040;-72
2021/01/28 08:41:20;;;;;;;47.90;22.23;;;;;;;0.19;71.25;99847.34;5005423;28;20056;-72
2021/01/28 08:43:45;;;;;;;49.80;21.90;;;;;;;0.41;70.91;99838.06;5055578;28;20033;-71
2021/01/28 08:46:18;;;;;;;44.65;21.88;;;;;;;0.41;70.24;99845.06;5055487;28;20029;-70
2021/01/28 08:48:44;;;;;;;49.22;23.88;;;;;;;0.36;70.93;99853.03;5055383;28;20036;-71
2021/01/28 08:51:30;;;;;;;50.20;23.05;;;;;;;0.43;70.54;99851.13;5055432;28;20497;-71
2021/01/28 08:54:06;;;;;;;50.00;24.92;;;;;;;0.39;70.91;99847.75;5036993;28;20041;-70
2021/01/28 08:56:38;;;;;;;52.55;24.30;;;;;;;0.39;70.52;99847.75;5055471;28;20501;-71
2021/01/28 08:59:09;;;;;;;53.30;23.83;;;;;;;0.36;71.35;99847.81;5037537;28;20488;-72
2021/01/28 09:01:42;;;;;;;60.70;26.00;;;;;;;0.28;71.52;99813.88;5055426;28;20025;-72
2021/01/28 09:04:25;;;;;;;50.47;25.87;;;;;;;0.61;71.35;99841.94;5055260;28;20059;-70
2021/01/28 09:06:51;;;;;;;;;;;;;;;0.61;71.34;99857.69;5055767;28;20071;-71
2021/01/28 09:09:25;;;;;;;48.67;23.50;;;;;;;0.74;71.46;99851.19;5055027;28;19956;-72
2021/01/28 09:11:52;;;;;;;55.53;24.98;;;;;;;0.62;71.42;99822.66;5055807;28;20025;-71
2021/01/28 09:14:28;;;;;;;47.17;23.30;;;;;;;1.02;71.22;99862.69;5037309;28;20043;-71
2021/01/28 09:17:05;;;;;;;46.00;20.42;;;;;;;1.06;70.99;99853.84;5055099;28;20041;-70
2021/01/28 09:19:34;;;;;;;46.92;20.33;;;;;;;0.98;71.26;99842.69;5037673;28;20056;-70
2021/01/28 09:22:06;;;;;;;38.72;18.67;;;;;;;1.03;71.92;99846.03;5055036;28;20036;-71
2021/01/28 09:24:48;;;;;;;33.65;16.80;;;;;;;1.10;71.63;99850.22;5055298;28;20099;-71
2021/01/28 09:27:25;;;;;;;45.28;17.50;;;;;;;1.06;71.96;99848.59;5054644;28;20378;-71
2021/01/28 09:29:52;;;;;;;35.22;17.65;;;;;;;1.09;71.60;99830.09;5054796;28;20078;-70
2021/01/28 09:32:18;;;;;;;39.20;18.35;;;;;;;1.28;71.30;99842.72;5054798;28;20119;-71
2021/01/28 09:34:44;;;;;;;38.50;17.30;;;;;;;1.25;71.50;99825.25;5054831;28;20118;-70
2021/01/28 09:37:18;;;;;;;36.83;17.73;;;;;;;1.43;70.93;99837.00;5054639;28;20032;-71
2021/01/28 09:39:53;;;;;;;41.30;17.15;;;;;;;1.53;70.13;99813.91;5036728;28;20126;-70
2021/01/28 09:42:22;;;;;;;30.42;16.02;;;;;;;1.64;69.77;99830.22;5054543;28;20394;-71
2021/01/28 09:44:51;;;;;;;32.97;16.08;;;;;;;1.69;69.38;99823.94;5054779;28;20064;-69
2021/01/28 09:47:21;;;;;;;35.42;16.25;;;;;;;1.69;69.60;99830.97;5054477;28;20025;-71
2021/01/28 09:49:50;;;;;;;37.28;15.90;;;;;;;1.62;69.95;99821.53;5054534;28;20032;-70
2021/01/28 09:52:37;;;;;;;33.15;15.32;;;;;;;1.74;69.58;99813.28;5054271;28;20155;-70
2021/01/28 09:55:07;;;;;;;33.20;14.57;;;;;;;1.78;69.12;99795.63;5054497;28;20032;-72
2021/01/28 09:57:33;;;;;;;30.63;13.95;;;;;;;1.81;68.46;99777.13;5055935;28;20036;-71
2021/01/28 09:59:58;;;;;;;30.73;13.40;;;;;;;1.90;68.06;99804.00;5037401;28;20449;-72
2021/01/28 10:02:38;;;;;;;26.60;14.02;;;;;;;1.80;67.85;99775.41;5036853;28;20374;-71
2021/01/28 10:05:05;;;;;;;29.30;13.25;;;;;;;2.00;67.35;99789.63;5053724;28;20449;-71
2021/01/28 10:07:31;;;;;;;29.40;13.25;;;;;;;1.91;67.84;99789.91;5036595;28;20132;-70
2021/01/28 10:09:56;;;;;;;27.92;12.98;;;;;;;2.00;68.56;99783.50;5054193;28;20111;-70
2021/01/28 10:12:25;;;;;;;28.65;14.13;;;;;;;2.09;68.26;99783.22;5053731;28;20090;-71
2021/01/28 10:14:51;;;;;;;27.25;12.43;;;;;;;1.98;68.02;99751.13;5054015;28;20422;-70
2021/01/28 10:17:17;;;;;;;27.60;12.18;;;;;;;2.18;68.31;99766.25;5036126;28;20040;-72
2021/01/28 10:19:44;;;;;;;29.90;13.40;;;;;;;2.26;67.80;99759.81;5053927;28;20470;-71
2021/01/28 10:22:17;;;;;;;28.77;12.52;;;;;;;2.19;67.36;99725.88;5036144;28;20037;-72
2021/01/28 10:24:43;;;;;;;26.73;13.15;;;;;;;2.11;67.47;99697.19;5054208;28;20024;-70
2021/01/28 10:27:09;;;;;;;25.95;13.30;;;;;;;2.28;67.57;99721.16;5035671;28;20478;-71
2021/01/28 10:29:38;;;;;;;25.17;13.70;;;;;;;2.44;67.37;99728.53;5053656;28;20486;-71
2021/01/28 10:32:07;;;;;;;28.10;14.38;;;;;;;2.44;67.56;99720.63;5035411;28;20045;-71
2021/01/28 10:34:34;;;;;;;32.38;15.43;;;;;;;2.39;67.28;99714.66;5053765;28;20124;-70
2021/01/28 10:36:59;;;;;;;29.60;15.18;;;;;;;2.46;67.71;99727.53;5035875;28;20036;-71
2021/01/28 10:39:25;;;;;;;32.80;15.80;;;;;;;2.35;67.74;99694.63;5053541;28;20390;-70
2021/01/28 10:41:51;;;;;;;27.05;14.00;;;;;;;2.75;67.08;99713.34;5049826;28;20067;-71
2021/01/28 10:44:17;;;;;;;31.85;16.27;;;;;;;2.62;67.03;99692.78;5055574;28;20028;-71
2021/01/28 10:46:43;;;;;;;36.83;16.35;;;;;;;2.71;67.12;99695.09;5072130;28;20043;-72
2021/01/28 10:49:10;;;;;;;33.08;16.00;;;;;;;2.76;67.03;99701.03;5072242;28;20044;-71
2021/01/28 10:51:36;;;;;;;29.65;15.43;;;;;;;2.67;67.57;99696.94;5073517;28;20052;-70
2021/01/28 10:54:03;;;;;;;31.48;16.10;;;;;;;2.42;67.75;99648.75;5073223;28;20033;-71
2021/01/28 10:56:28;;;;;;;30.80;14.40;;;;;;;2.80;67.41;99686.84;5073639;28;20115;-71
2021/01/28 10:58:54;;;;;;;27.83;13.02;;;;;;;2.85;67.66;99680.47;5072158;28;20128;-71
2021/01/28 11:01:20;;;;;;;25.80;12.35;;;;;;;2.54;67.77;99638.63;5071908;28;20036;-72
2021/01/28 11:03:46;;;;;;;21.60;12.25;;;;;;;2.70;67.38;99645.94;5073470;28;20036;-71
2021/01/28 11:06:11;;;;;;;26.33;13.10;;;;;;;2.75;67.41;99651.91;5073164;28;20032;-71
2021/01/28 11:08:37;;;;;;;26.00;12.77;;;;;;;2.86;67.12;99665.50;5073247;28;20385;-70
2021/01/28 11:11:04;;;;;;;23.25;12.00;;;;;;;2.67;66.55;99632.88;5072670;28;20424;-76
2021/01/28 11:13:29;;;;;;;23.70;12.85;;;;;;;2.76;65.96;99654.47;5073143;28;20071;-70
2021/01/28 11:15:55;;;;;;;21.08;12.93;;;;;;;2.66;65.12;99632.03;5073032;28;20068;-71
2021/01/28 11:18:21;;;;;;;24.77;12.52;;;;;;;2.71;65.17;99648.53;5073015;28;20450;-71
2021/01/28 11:20:47;;;;;;;25.42;12.70;;;;;;;2.60;65.55;99650.69;5071968;28;20417;-70
2021/01/28 11:23:12;;;;;;;24.15;12.00;;;;;;;2.50;65.49;99651.94;5071743;28;20112;-71
2021/01/28 11:25:37;;;;;;;20.65;10.82;;;;;;;2.61;65.11;99639.25;5072787;28;20499;-70
2021/01/28 11:28:04;;;;;;;21.40;11.07;;;;;;;2.29;65.22;99598.31;5071614;28;20435;-71
2021/01/28 11:30:31;;;;;;;20.55;11.13;;;;;;;2.55;65.47;99629.81;5072982;28;20035;-71
2021/01/28 11:32:57;;;;;;;24.30;11.85;;;;;;;2.54;65.32;99614.06;5072026;28;20071;-71
2021/01/28 11:35:26;;;;;;;23.85;11.25;;;;;;;2.72;64.51;99616.00;5071766;28;20037;-71
2021/01/28 11:37:51;;;;;;;20.67;10.98;;;;;;;2.74;64.23;99603.63;5073183;28;20060;-71